createdAt,value
2018-12-23T00:00:33.091Z,194.77
2018-12-23T00:03:01.678Z,191.90
2018-12-23T00:05:30.256Z,192.73
2018-12-23T00:07:58.865Z,204.93
2018-12-23T00:10:27.434Z,194.60
2018-12-23T00:12:55.956Z,198.23
2018-12-23T00:15:24.450Z,188.50
2018-12-23T00:17:53.018Z,178.57
2018-12-23T00:20:21.575Z,176.17
2018-12-23T00:22:50.181Z,185.40
2018-12-23T00:25:18.721Z,177.13
2018-12-23T00:27:47.314Z,183.47
2018-12-23T00:30:15.924Z,174.07
2018-12-23T00:32:44.469Z,164.70
2018-12-23T00:35:20.180Z,168.83
2018-12-23T00:37:43.659Z,172.60
2018-12-23T00:40:12.219Z,186.67
2018-12-23T00:42:40.740Z,182.47
2018-12-23T00:45:09.381Z,175.17
2018-12-23T00:47:37.952Z,180.47
2018-12-23T00:50:08.047Z,175.43
2018-12-23T00:52:36.563Z,178.67
2018-12-23T00:55:05.343Z,181.23
2018-12-23T00:57:33.884Z,170.17
2018-12-23T01:00:02.579Z,177.40
2018-12-23T01:02:31.133Z,174.97
2018-12-23T01:04:59.654Z,172.60
2018-12-23T01:07:28.160Z,173.87
2018-12-23T01:09:56.688Z,187.77
2018-12-23T01:12:25.230Z,178.07
2018-12-23T01:14:53.774Z,183.37
2018-12-23T01:17:22.361Z,183.20
2018-12-23T01:19:51.029Z,183.83
2018-12-23T01:22:19.594Z,188.83
2018-12-23T01:24:48.175Z,193.20
2018-12-23T01:27:16.778Z,181.27
2018-12-23T01:29:45.416Z,191.67
2018-12-23T01:32:13.969Z,182.40
2018-12-23T01:34:42.606Z,175.00
2018-12-23T01:37:11.204Z,179.23
2018-12-23T01:39:39.763Z,171.20
2018-12-23T01:42:08.350Z,192.57
2018-12-23T01:44:37.011Z,188.33
2018-12-23T01:47:05.571Z,181.30
2018-12-23T01:49:34.214Z,181.93
2018-12-23T01:52:02.830Z,185.43
2018-12-23T01:54:31.332Z,188.17
2018-12-23T01:56:59.934Z,182.10
2018-12-23T01:59:28.554Z,192.37
2018-12-23T02:01:57.088Z,186.07
2018-12-23T02:04:25.644Z,191.63
2018-12-23T02:06:54.231Z,188.23
2018-12-23T02:09:22.848Z,188.60
2018-12-23T02:11:51.711Z,189.07
2018-12-23T02:14:20.352Z,186.63
2018-12-23T02:16:48.928Z,182.17
2018-12-23T02:19:17.487Z,191.83
2018-12-23T02:21:46.049Z,183.60
2018-12-23T02:24:14.676Z,178.60
2018-12-23T02:26:43.268Z,164.77
2018-12-23T02:29:11.789Z,179.10
2018-12-23T02:31:40.342Z,181.10
2018-12-23T02:34:08.951Z,173.53
2018-12-23T02:36:37.577Z,173.80
2018-12-23T02:39:08.391Z,152.23
2018-12-23T02:41:37.027Z,156.63
2018-12-23T02:44:05.819Z,156.07
2018-12-23T02:46:34.430Z,159.77
2018-12-23T02:49:03.006Z,167.33
2018-12-23T02:51:31.616Z,166.93
2018-12-23T02:54:00.548Z,172.67
2018-12-23T02:56:29.117Z,165.43
2018-12-23T02:58:57.757Z,165.73
2018-12-23T03:01:26.347Z,148.67
2018-12-23T03:03:55.038Z,144.00
2018-12-23T03:06:23.585Z,127.73
2018-12-23T03:08:52.153Z,120.77
2018-12-23T03:11:20.782Z,114.10
2018-12-23T03:13:49.392Z,115.53
2018-12-23T03:16:17.987Z,111.20
2018-12-23T03:18:46.513Z,114.77
2018-12-23T03:21:15.104Z,109.87
2018-12-23T03:23:43.666Z,102.67
2018-12-23T03:26:12.285Z,99.23
2018-12-23T03:28:40.859Z,94.37
2018-12-23T03:31:09.413Z,90.17
2018-12-23T03:33:38.011Z,85.43
2018-12-23T03:36:14.728Z,80.53
2018-12-23T03:38:37.178Z,73.80
2018-12-23T03:41:06.034Z,79.33
2018-12-23T03:43:34.604Z,75.80
2018-12-23T03:46:03.176Z,80.67
2018-12-23T03:48:31.733Z,93.37
2018-12-23T03:51:00.281Z,99.53
2018-12-23T03:53:28.836Z,101.27
2018-12-23T03:55:57.323Z,108.37
2018-12-23T03:58:25.829Z,111.00
2018-12-23T04:00:54.414Z,110.93
2018-12-23T04:03:23.003Z,109.83
2018-12-23T04:05:51.589Z,107.77
2018-12-23T04:08:20.120Z,109.57
2018-12-23T04:10:48.727Z,114.50
2018-12-23T04:13:17.332Z,114.50
2018-12-23T04:15:45.919Z,116.83
2018-12-23T04:18:14.489Z,115.63
2018-12-23T04:20:43.100Z,117.03
2018-12-23T04:23:11.668Z,123.13
2018-12-23T04:25:40.192Z,118.67
2018-12-23T04:28:08.779Z,114.70
2018-12-23T04:30:37.362Z,112.67
2018-12-23T04:33:05.893Z,112.27
2018-12-23T04:35:34.467Z,114.23
2018-12-23T04:38:03.043Z,112.17
2018-12-23T04:43:06.302Z,110.80
2018-12-23T04:45:34.856Z,108.03
2018-12-23T04:48:03.503Z,110.90
2018-12-23T04:50:32.093Z,108.47
2018-12-23T04:53:00.681Z,115.33
2018-12-23T04:55:29.234Z,102.87
2018-12-23T04:57:57.800Z,108.20
2018-12-23T05:00:26.388Z,104.30
2018-12-23T05:02:55.021Z,107.20
2018-12-23T05:05:23.668Z,103.77
2018-12-23T05:07:52.237Z,92.70
2018-12-23T05:10:20.790Z,92.13
2018-12-23T05:12:49.645Z,89.80
2018-12-23T05:15:18.213Z,102.77
2018-12-23T05:17:46.773Z,108.97
2018-12-23T05:20:15.329Z,118.57
2018-12-23T05:22:43.936Z,115.60
2018-12-23T05:25:12.490Z,101.97
2018-12-23T05:27:41.085Z,95.40
2018-12-23T05:30:09.643Z,96.83
2018-12-23T05:32:38.163Z,100.20
2018-12-23T05:35:06.739Z,97.07
2018-12-23T05:37:35.283Z,86.83
2018-12-23T05:40:03.985Z,92.40
2018-12-23T05:42:32.507Z,82.20
2018-12-23T05:45:01.074Z,98.53
2018-12-23T05:47:29.692Z,108.10
2018-12-23T05:49:58.367Z,113.43
2018-12-23T05:52:27.008Z,111.77
2018-12-23T05:54:55.556Z,113.73
2018-12-23T05:57:24.120Z,112.37
2018-12-23T05:59:52.946Z,120.80
2018-12-23T06:02:21.537Z,107.23
2018-12-23T06:04:50.124Z,105.07
2018-12-23T06:07:18.683Z,110.33
2018-12-23T06:09:47.265Z,105.97
2018-12-23T06:12:15.808Z,108.50
2018-12-23T06:14:44.385Z,110.63
2018-12-23T06:17:12.958Z,105.13
2018-12-23T06:19:41.574Z,98.40
2018-12-23T06:22:10.110Z,101.63
2018-12-23T06:24:39.007Z,94.07
2018-12-23T06:27:07.620Z,100.47
2018-12-23T06:29:36.164Z,106.03
2018-12-23T06:32:04.875Z,111.20
2018-12-23T06:34:33.583Z,107.40
2018-12-23T06:37:09.715Z,122.17
2018-12-23T06:39:32.793Z,106.90
2018-12-23T06:42:01.368Z,100.07
2018-12-23T06:44:29.877Z,86.00
2018-12-23T06:47:05.206Z,99.20
2018-12-23T06:49:33.769Z,84.53
2018-12-23T06:52:02.287Z,80.57
2018-12-23T06:54:30.847Z,77.23
2018-12-23T06:56:59.466Z,88.03
2018-12-23T06:59:28.045Z,90.03
2018-12-23T07:01:56.615Z,90.27
2018-12-23T07:04:25.298Z,87.53
2018-12-23T07:06:53.918Z,82.60
2018-12-23T07:09:22.446Z,87.57
2018-12-23T07:11:51.032Z,90.67
2018-12-23T07:14:19.707Z,87.17
2018-12-23T07:16:48.282Z,98.37
2018-12-23T07:19:16.877Z,96.77
2018-12-23T07:21:45.427Z,97.40
2018-12-23T07:24:14.002Z,90.10
2018-12-23T07:26:43.659Z,87.87
2018-12-23T07:29:12.432Z,87.77
2018-12-23T07:31:40.957Z,78.43
2018-12-23T07:34:09.508Z,74.20
2018-12-23T07:36:38.157Z,72.13
2018-12-23T07:39:07.094Z,61.67
2018-12-23T07:41:35.724Z,70.90
2018-12-23T07:44:04.297Z,60.37
2018-12-23T07:46:32.885Z,47.07
2018-12-23T07:49:01.392Z,49.30
2018-12-23T07:51:29.936Z,55.27
2018-12-23T07:53:58.546Z,39.40
2018-12-23T07:56:27.072Z,35.70
2018-12-23T07:58:55.704Z,34.97
2018-12-23T08:01:24.242Z,39.00
2018-12-23T08:03:53.019Z,33.17
2018-12-23T08:06:21.707Z,32.17
2018-12-23T08:08:50.241Z,30.03
2018-12-23T08:11:18.827Z,29.23
2018-12-23T08:13:47.425Z,30.90
2018-12-23T08:16:16.005Z,29.77
2018-12-23T08:18:44.552Z,26.20
2018-12-23T08:21:13.082Z,23.83
2018-12-23T08:23:41.855Z,23.90
2018-12-23T08:26:10.395Z,23.77
2018-12-23T08:28:39.001Z,23.73
2018-12-23T08:31:07.573Z,26.37
2018-12-23T08:33:36.097Z,21.97
2018-12-23T08:36:04.824Z,22.87
2018-12-23T08:38:33.379Z,21.20
2018-12-23T08:41:01.980Z,20.27
2018-12-23T08:43:30.542Z,22.50
2018-12-23T08:45:59.172Z,21.87
2018-12-23T08:48:27.678Z,21.43
2018-12-23T08:50:56.211Z,19.13
2018-12-23T08:53:24.718Z,15.13
2018-12-23T08:55:53.280Z,15.33
2018-12-23T08:58:21.829Z,15.40
2018-12-23T09:00:50.600Z,16.97
2018-12-23T09:03:19.541Z,16.43
2018-12-23T09:05:48.159Z,17.10
2018-12-23T09:08:16.668Z,17.07
2018-12-23T09:10:45.258Z,18.27
2018-12-23T09:13:13.814Z,12.53
2018-12-23T09:15:42.429Z,9.93
2018-12-23T09:18:19.127Z,9.20
2018-12-23T09:20:41.647Z,10.10
2018-12-23T09:23:10.570Z,8.97
2018-12-23T09:25:39.323Z,8.40
2018-12-23T09:28:08.953Z,8.03
2018-12-23T09:30:37.726Z,7.47
2018-12-23T09:33:06.288Z,8.37
2018-12-23T09:35:35.176Z,7.47
2018-12-23T09:38:03.724Z,9.10
2018-12-23T09:40:32.340Z,7.90
2018-12-23T09:43:00.829Z,9.87
2018-12-23T09:45:29.561Z,9.43
2018-12-23T09:47:58.065Z,9.40
2018-12-23T09:50:26.649Z,9.97
2018-12-23T09:52:55.222Z,9.57
2018-12-23T09:55:23.857Z,9.93
2018-12-23T09:57:52.434Z,10.17
2018-12-23T10:00:21.134Z,10.67
2018-12-23T10:02:49.683Z,11.47
2018-12-23T10:05:18.215Z,9.53
2018-12-23T10:07:46.765Z,10.80
2018-12-23T10:10:16.208Z,10.83
2018-12-23T10:12:44.757Z,10.03
2018-12-23T10:15:13.306Z,11.00
2018-12-23T10:17:41.841Z,11.87
2018-12-23T10:20:10.382Z,9.10
2018-12-23T10:22:38.946Z,8.00
2018-12-23T10:25:07.542Z,8.80
2018-12-23T10:27:36.101Z,9.47
2018-12-23T10:30:12.295Z,9.00
2018-12-23T10:32:40.918Z,9.40
2018-12-23T10:35:09.445Z,8.80
2018-12-23T10:37:38.105Z,7.83
2018-12-23T10:40:07.038Z,7.60
2018-12-23T10:42:35.586Z,7.17
2018-12-23T10:45:04.320Z,8.00
2018-12-23T10:47:32.974Z,7.93
2018-12-23T10:50:01.487Z,6.97
2018-12-23T10:52:30.033Z,6.60
2018-12-23T10:54:58.555Z,6.37
2018-12-23T10:57:27.289Z,6.60
2018-12-23T10:59:55.851Z,6.27
2018-12-23T11:02:24.495Z,8.30
2018-12-23T11:04:53.018Z,5.77
2018-12-23T11:07:21.538Z,4.87
2018-12-23T11:09:50.139Z,4.80
2018-12-23T11:12:18.731Z,5.20
2018-12-23T11:14:47.301Z,4.93
2018-12-23T11:17:15.835Z,5.70
2018-12-23T11:19:44.411Z,6.23
2018-12-23T11:22:13.010Z,6.30
2018-12-23T11:24:41.561Z,6.47
2018-12-23T11:27:10.180Z,6.57
2018-12-23T11:29:38.768Z,6.70
2018-12-23T11:32:07.409Z,5.47
2018-12-23T11:34:36.318Z,6.20
2018-12-23T11:37:04.884Z,5.87
2018-12-23T11:39:33.402Z,6.27
2018-12-23T11:42:02.089Z,5.97
2018-12-23T11:44:30.692Z,5.50
2018-12-23T11:46:59.235Z,5.83
2018-12-23T11:49:27.934Z,5.87
2018-12-23T11:51:56.448Z,6.27
2018-12-23T11:54:25.077Z,6.13
2018-12-23T11:56:53.791Z,5.90
2018-12-23T11:59:22.395Z,6.27
2018-12-23T12:01:51.079Z,5.90
2018-12-23T12:04:19.675Z,5.43
2018-12-23T12:06:48.235Z,5.37
2018-12-23T12:09:16.776Z,4.50
2018-12-23T12:11:45.337Z,4.87
2018-12-23T12:14:13.873Z,4.07
2018-12-23T12:16:42.482Z,5.43
2018-12-23T12:19:11.043Z,5.10
2018-12-23T12:21:39.596Z,6.23
2018-12-23T12:24:08.171Z,5.10
2018-12-23T12:26:36.767Z,5.60
2018-12-23T12:29:05.302Z,6.10
2018-12-23T12:31:33.848Z,6.23
2018-12-23T12:34:02.418Z,6.60
2018-12-23T12:36:31.046Z,5.87
2018-12-23T12:39:01.658Z,6.30
2018-12-23T12:41:30.193Z,5.90
2018-12-23T12:43:58.815Z,4.93
2018-12-23T12:46:27.383Z,4.97
2018-12-23T12:48:55.953Z,6.30
2018-12-23T12:51:24.430Z,7.00
2018-12-23T12:53:52.944Z,6.47
2018-12-23T12:56:21.491Z,5.67
2018-12-23T12:58:50.071Z,5.57
2018-12-23T13:01:18.684Z,5.63
2018-12-23T13:03:47.165Z,5.77
2018-12-23T13:06:15.729Z,6.17
2018-12-23T13:08:44.327Z,6.00
2018-12-23T13:11:13.145Z,5.63
2018-12-23T13:13:41.650Z,5.13
2018-12-23T13:16:10.191Z,5.83
2018-12-23T13:18:38.822Z,5.20
2018-12-23T13:21:07.343Z,4.87
2018-12-23T13:23:35.929Z,4.60
2018-12-23T13:26:04.478Z,4.57
2018-12-23T13:28:33.026Z,4.60
2018-12-23T13:31:01.596Z,4.80
2018-12-23T13:33:30.202Z,4.63
2018-12-23T13:35:58.728Z,4.77
2018-12-23T13:38:27.270Z,4.20
2018-12-23T13:41:21.260Z,4.47
2018-12-23T13:44:19.814Z,4.80
2018-12-23T13:47:15.480Z,5.37
2018-12-23T13:51:57.599Z,6.87
2018-12-23T13:56:42.756Z,4.20
2018-12-23T13:59:23.279Z,3.70
2018-12-23T14:02:01.735Z,4.33
2018-12-23T14:04:40.306Z,4.93
2018-12-23T14:07:58.270Z,7.00
2018-12-23T14:11:22.809Z,8.53
2018-12-23T14:13:51.355Z,6.80
2018-12-23T14:16:19.918Z,4.50
2018-12-23T14:18:48.559Z,4.90
2018-12-23T14:21:17.170Z,4.80
2018-12-23T14:23:45.797Z,4.97
2018-12-23T14:26:14.324Z,5.10
2018-12-23T14:28:42.857Z,5.97
2018-12-23T14:31:11.365Z,5.63
2018-12-23T14:33:39.881Z,4.97
2018-12-23T14:36:08.445Z,5.00
2018-12-23T14:38:37.059Z,5.10
2018-12-23T14:41:05.770Z,5.93
2018-12-23T14:43:34.304Z,5.63
2018-12-23T14:46:02.883Z,4.60
2018-12-23T14:48:31.381Z,5.60
2018-12-23T14:51:00.023Z,5.43
2018-12-23T14:53:28.538Z,5.60
2018-12-23T14:55:57.069Z,5.43
2018-12-23T14:58:25.605Z,7.93
2018-12-23T15:00:54.177Z,5.40
2018-12-23T15:03:22.729Z,5.47
2018-12-23T15:05:51.317Z,5.93
2018-12-23T15:08:19.852Z,6.03
2018-12-23T15:10:48.398Z,6.07
2018-12-23T15:13:17.966Z,5.83
2018-12-23T15:15:46.721Z,6.57
2018-12-23T15:18:15.285Z,6.00
2018-12-23T15:20:43.927Z,6.90
2018-12-23T15:23:12.517Z,6.33
2018-12-23T15:25:41.015Z,5.60
2018-12-23T15:28:09.537Z,5.30
2018-12-23T15:30:38.215Z,4.93
2018-12-23T15:33:06.795Z,4.00
2018-12-23T15:35:37.906Z,4.67
2018-12-23T15:38:06.591Z,3.70
2018-12-23T15:40:35.144Z,4.63
2018-12-23T15:43:03.864Z,4.63
2018-12-23T15:45:32.401Z,4.83
2018-12-23T15:48:00.940Z,4.70
2018-12-23T15:50:29.466Z,4.50
2018-12-23T15:52:58.194Z,5.20
2018-12-23T15:55:26.783Z,5.87
2018-12-23T15:57:55.324Z,6.33
2018-12-23T16:00:23.878Z,11.53
2018-12-23T16:02:52.359Z,15.83
2018-12-23T16:05:20.899Z,16.33
2018-12-23T16:07:49.492Z,11.17
2018-12-23T16:10:18.101Z,9.30
2018-12-23T16:12:46.650Z,11.13
2018-12-23T16:15:15.174Z,9.53
2018-12-23T16:17:43.709Z,10.07
2018-12-23T16:20:13.656Z,10.63
2018-12-23T16:22:42.238Z,7.83
2018-12-23T16:25:10.832Z,7.27
2018-12-23T16:27:39.324Z,8.10
2018-12-23T16:30:10.523Z,8.77
2018-12-23T16:32:39.099Z,8.47
2018-12-23T16:35:07.632Z,8.80
2018-12-23T16:37:36.179Z,8.60
2018-12-23T16:40:06.327Z,9.97
2018-12-23T16:42:34.883Z,10.30
2018-12-23T16:45:03.443Z,11.07
2018-12-23T16:47:31.966Z,13.10
2018-12-23T16:50:00.445Z,12.83
2018-12-23T16:52:29.329Z,12.10
2018-12-23T16:54:57.907Z,12.77
2018-12-23T16:57:26.427Z,11.53
2018-12-23T16:59:54.987Z,11.23
2018-12-23T17:02:23.573Z,9.60
2018-12-23T17:04:52.083Z,9.70
2018-12-23T17:07:20.666Z,9.53
2018-12-23T17:09:49.218Z,8.37
2018-12-23T17:12:17.790Z,7.43
2018-12-23T17:14:46.342Z,6.33
2018-12-23T17:17:14.829Z,7.67
2018-12-23T17:19:43.376Z,6.93
2018-12-23T17:22:11.876Z,7.20
2018-12-23T17:24:40.478Z,7.20
2018-12-23T17:27:09.032Z,8.33
2018-12-23T17:29:37.609Z,7.43
2018-12-23T17:32:06.281Z,6.27
2018-12-23T17:34:34.821Z,6.60
2018-12-23T17:37:03.373Z,5.33
2018-12-23T17:39:31.949Z,5.20
2018-12-23T17:42:00.528Z,5.27
2018-12-23T17:44:29.208Z,4.37
2018-12-23T17:46:57.718Z,4.67
2018-12-23T17:49:26.228Z,5.23
2018-12-23T17:51:54.767Z,5.00
2018-12-23T17:54:23.253Z,4.93
2018-12-23T17:56:51.749Z,4.40
2018-12-23T17:59:20.307Z,4.60
2018-12-23T18:01:48.858Z,4.87
2018-12-23T18:04:17.455Z,4.10
2018-12-23T18:06:45.993Z,4.73
2018-12-23T18:09:14.571Z,5.33
2018-12-23T18:11:43.283Z,4.33
2018-12-23T18:14:12.051Z,4.80
2018-12-23T18:16:40.741Z,5.67
2018-12-23T18:19:09.308Z,4.93
2018-12-23T18:21:38.060Z,5.43
2018-12-23T18:24:06.674Z,5.77
2018-12-23T18:26:35.400Z,4.87
2018-12-23T18:29:03.951Z,5.60
2018-12-23T18:31:32.540Z,5.00
2018-12-23T18:34:01.110Z,6.57
2018-12-23T18:36:29.752Z,6.10
2018-12-23T18:38:58.376Z,6.03
2018-12-23T18:41:26.920Z,6.63
2018-12-23T18:43:55.481Z,5.80
2018-12-23T18:46:24.061Z,6.77
2018-12-23T18:48:52.582Z,6.77
2018-12-23T18:51:21.098Z,6.67
2018-12-23T18:53:49.673Z,13.77
2018-12-23T18:56:19.419Z,21.77
2018-12-23T18:58:47.934Z,22.00
2018-12-23T19:01:17.346Z,24.40
2018-12-23T19:03:45.849Z,25.37
2018-12-23T19:06:14.404Z,27.07
2018-12-23T19:08:59.465Z,26.00
2018-12-23T19:11:36.126Z,28.17
2018-12-23T19:14:16.372Z,30.53
2018-12-23T19:17:53.746Z,31.80
2018-12-23T19:20:50.835Z,29.87
2018-12-23T19:23:41.965Z,29.87
2018-12-23T19:27:21.637Z,29.07
2018-12-23T19:30:20.568Z,31.10
2018-12-23T19:34:14.446Z,27.73
2018-12-23T19:37:09.443Z,31.47
2018-12-23T19:40:14.230Z,26.47
2018-12-23T19:43:04.917Z,29.30
2018-12-23T19:45:59.459Z,29.33
2018-12-23T19:49:04.419Z,32.70
2018-12-23T19:52:23.996Z,41.17
2018-12-23T19:55:17.766Z,24.87
2018-12-23T19:58:26.994Z,24.77
2018-12-23T20:02:01.715Z,25.13
2018-12-23T20:05:26.315Z,38.97
2018-12-23T20:08:51.962Z,43.67
2018-12-23T20:12:06.857Z,59.43
2018-12-23T20:15:23.306Z,56.77
2018-12-23T20:18:42.944Z,49.60
2018-12-23T20:21:50.512Z,34.20
2018-12-23T20:25:06.821Z,39.00
2018-12-23T20:28:00.592Z,37.13
2018-12-23T20:31:05.427Z,43.13
2018-12-23T20:34:15.877Z,41.00
2018-12-23T20:37:47.647Z,51.10
2018-12-23T20:41:07.626Z,28.23
2018-12-23T20:44:07.035Z,49.97
2018-12-23T20:47:04.779Z,44.23
2018-12-23T20:50:30.264Z,34.23
2018-12-23T20:53:35.294Z,46.17
2018-12-23T20:56:55.235Z,48.67
2018-12-23T21:00:14.657Z,41.53
2018-12-23T21:02:58.852Z,38.87
2018-12-23T21:06:01.560Z,40.13
2018-12-23T21:09:09.835Z,43.63
2018-12-23T21:12:16.781Z,34.63
2018-12-23T21:15:26.592Z,39.80
2018-12-23T21:18:23.902Z,40.93
2018-12-23T21:21:31.885Z,40.77
2018-12-23T21:24:37.163Z,39.47
2018-12-23T21:27:36.978Z,46.83
2018-12-23T21:30:31.985Z,45.67
2018-12-23T21:33:39.897Z,40.33
2018-12-23T21:36:41.375Z,47.20
2018-12-23T21:40:09.706Z,36.63
2018-12-23T21:43:05.295Z,39.53
2018-12-23T21:45:56.879Z,35.80
2018-12-23T21:49:16.361Z,35.63
2018-12-23T21:52:26.033Z,29.63
2018-12-23T21:55:38.301Z,29.83
2018-12-23T21:58:47.256Z,26.67
2018-12-23T22:02:05.427Z,26.50
2018-12-23T22:05:24.839Z,27.23
2018-12-23T22:08:34.480Z,28.67
2018-12-23T22:11:35.539Z,30.20
2018-12-23T22:14:06.624Z,30.73
2018-12-23T22:16:36.269Z,32.53
2018-12-23T22:19:05.720Z,30.10
2018-12-23T22:21:35.571Z,27.20
2018-12-23T22:24:06.307Z,36.57
2018-12-23T22:26:35.808Z,27.63
2018-12-23T22:29:05.463Z,25.97
2018-12-23T22:31:36.110Z,30.07
2018-12-23T22:34:05.909Z,22.47
2018-12-23T22:36:35.260Z,23.40
2018-12-23T22:39:06.625Z,23.20
2018-12-23T22:41:41.467Z,27.30
2018-12-23T22:44:09.055Z,26.10
2018-12-23T22:46:38.491Z,25.83
2018-12-23T22:49:07.930Z,26.73
2018-12-23T22:51:37.617Z,25.93
2018-12-23T22:54:08.361Z,25.87
2018-12-23T22:56:37.759Z,20.13
2018-12-23T22:59:10.239Z,25.43
2018-12-23T23:01:40.281Z,23.43
2018-12-23T23:04:09.695Z,23.00
2018-12-23T23:06:39.287Z,27.40
2018-12-23T23:09:10.331Z,29.63
2018-12-23T23:11:39.811Z,29.63
2018-12-23T23:14:10.048Z,25.67
2018-12-23T23:16:40.366Z,27.37
2018-12-23T23:19:16.837Z,24.60
2018-12-23T23:21:46.415Z,27.10
2018-12-23T23:24:16.092Z,27.57
2018-12-23T23:26:46.451Z,24.80
2018-12-23T23:29:16.063Z,30.43
2018-12-23T23:31:54.010Z,22.27
2018-12-23T23:34:23.602Z,22.70
2018-12-23T23:36:53.057Z,23.10
2018-12-23T23:39:25.690Z,20.93
2018-12-23T23:41:58.470Z,23.30
2018-12-23T23:44:27.979Z,24.27
2018-12-23T23:46:57.696Z,24.50
2018-12-23T23:49:27.187Z,23.10
2018-12-23T23:51:56.676Z,19.57
2018-12-23T23:54:26.223Z,20.07
2018-12-23T23:56:55.684Z,19.47
2018-12-23T23:59:25.317Z,18.10
